Terminal Aerodrome Forecast
Issued by NWS Grand Forks, ND

Home | Current Version | Previous Version | Text Only | Print | Product List | Glossary Off
Versions: 1 2 3 4 5 6 7 8 9 10 11 12 13 14 15 16 17 18 19

231
FTUS43 KFGF 121734
TAFGFK
TAF
KGFK 121734Z 1218/1318 17011KT P6SM BKN070
     FM130000 19009KT P6SM SCT250
     FM130400 23009KT P6SM BKN150
     FM130500 28009KT P6SM OVC120
     FM130700 31012KT P6SM -FZDZ OVC090
     FM130900 33019G28KT 4SM -SN OVC025
     FM131100 33024G36KT 1SM -SN BLSN OVC015=

USA.gov is the U.S. government's official web portal to all federal, state and local government web resources and services.